Historyczne dane pomiarowe

Dodano dane terminowe – wersja testowa.

Dane z okresu 1951-2019

Wersja bazy: 1.34 [2019-03-16, lista zmian], aktualizacja planowana na 2019-04-15

Dane meteo z obszaru Polski uzyskane na podstawie danych udostępnionych przez Instytut Meteorologii i Gospodarki Wodnej – Państwowy Instytut Badawczy.

 

Wybierz Datę:    

       

TemperaturaWilgotnośćWiatrCiśnienieOpadyŚniegCzas trwania zjawisk
 Stacja t tx tn tng RH VA  wxwx mslp ppp RRR   cm mm wxwxwxwxwxwxwx
1961-08-14 13.9 19.7 7.5- 80.3- 4.3 0.7---- 0.0------------
1961-08-13 15.1 19.2 13.2- 80.8- 7.0 2.7---- 0.5------------
1961-08-12 17.6 21.1 15.1- 87.5- 7.7 1.0---- 1.3------------
1961-08-11 18.5 23.3 16.0- 95.0- 6.3 1.0---- 7.6------------
1961-08-10 19.6 25.7 14.1- 69.0- 3.0 2.3---- 19.8------------
1961-08-09 20.1 26.2 13.9- 76.8- 3.7 1.7---- 0.0------------
1961-08-08 16.6 22.4 13.9- 76.0- 4.0 2.7---- 0.0------------
1961-08-07 20.8 27.9 17.6- 83.0- 5.7 2.0---- 0.3------------
1961-08-06 21.5 29.5 12.2- 76.0- 1.0 4.0---- 0.0------------
1961-08-05 16.3 21.9 12.8- 79.0- 4.0 2.0---- 0.0------------
1961-08-04 15.5 20.4 12.1- 78.0- 6.3 2.0---- 0.7------------
1961-08-03 17.7 22.6 12.8- 76.3- 6.0 2.3---- 0.0------------
1961-08-02 17.1 24.0 9.6- 78.5- 1.3 2.3---- 0.0------------
1961-08-01 13.8 14.5 12.4- 87.0- 7.7 5.0---- 0.7------------
1961-07-31 15.4 19.0 12.9- 82.5- 6.3 5.0---- 0.0------------
1961-07-30 13.7 15.0 12.8- 99.5- 8.0 3.0---- 25.7------------
1961-07-29 14.5 17.9 12.9- 93.5- 8.0 2.7---- 6.2------------
1961-07-28 17.0 21.0 13.8- 91.5- 8.0 2.0---- 30.4------------
1961-07-27 19.0 24.1 12.7- 73.5- 7.0 4.0---- 0.7------------
1961-07-26 15.8 19.0 11.6- 84.3- 6.3 3.3---- 0.4------------
1961-07-25 14.1 18.7 11.6- 86.8- 4.7 3.3---- 0.3------------
1961-07-24 14.7 18.9 11.0- 80.0- 4.7 3.7---- 0.0------------
1961-07-23 14.7 18.8 11.2- 85.3- 5.3 3.0---- 0.9------------
1961-07-22 14.3 18.0 12.7- 93.0- 5.7 3.7---- 5.3------------
1961-07-21 15.0 22.0 10.4- 88.3- 4.7 2.0---- 0.0------------
1961-07-20 16.4 22.8 8.4- 76.3- 4.0 0.7---- 0.0------------
1961-07-19 16.3 23.7 8.7- 79.8- 4.7 1.0---- 0.7------------
1961-07-18 14.3 18.4 10.8- 83.5- 8.0 3.0---- 0.0------------
1961-07-17 16.5 23.3 11.1- 75.0- 6.3 3.7---- 0.2------------
1961-07-16 17.2 22.3 8.8- 86.5- 6.0 1.7---- 1.0------------
1961-07-15 17.5 23.1 9.2- 73.3- 3.0 2.3---- 0.0------------
1961-07-14 15.7 22.3 13.9- 75.3- 5.3 5.0---- 0.0------------
1961-07-13 21.5 29.4 8.8- 71.3- 3.3 3.7---- 0.0------------
1961-07-12 14.2 17.7 7.9- 94.0- 6.3 1.3---- 5.3------------
1961-07-11 15.1 19.4 8.4- 71.0- 3.0 2.3---- 0.0------------
1961-07-10 13.4 18.8 11.7- 89.8- 6.7 2.0---- 3.8------------
1961-07-09 16.7 23.6 9.0- 74.8- 2.7 2.7---- 2.0------------
1961-07-08 14.8 19.9 10.4- 74.8- 6.0 1.0---- 0.0------------
1961-07-07 13.7 17.2 7.9- 76.8- 4.3 4.0---- 0.3------------
1961-07-06 13.1 18.3 7.3- 72.5- 2.3 3.0---- 0.0------------
1961-07-05 14.8 19.4 13.0- 75.0- 5.3 3.3---- 0.0------------
1961-07-04 20.4 25.2 16.4- 80.0- 7.3 1.7---- 9.4------------
1961-07-03 22.1 30.0 11.3- 63.0- 0.3 2.0---- 0.0------------
1961-07-02 21.3 28.6 9.3- 58.8- 0.0 1.7---- 0.0------------
1961-07-01 17.7 23.5 9.4- 78.3- 1.0 1.3---- 0.0------------
1961-06-30 17.7 24.1 9.5- 71.5- 0.0 3.0---- 0.0------------
1961-06-29 13.8 17.5 8.4- 87.0- 4.3 2.3---- 2.7------------
1961-06-28 14.9 24.8 12.8- 84.3- 8.0 3.0---- 23.1------------
1961-06-27 24.5 31.9 13.3- 62.5- 2.3 3.7---- 1.4------------
1961-06-26 22.0 28.2 15.9- 60.5- 1.3 3.0---- 0.0------------
1961-06-25 20.3 26.7 12.7- 63.5- 1.7 4.7---- 0.0------------
1961-06-24 16.7 21.9 11.3- 68.0- 3.7 4.0---- 0.0------------
1961-06-23 16.6 23.2 11.9- 80.5- 6.0 2.3---- 3.5------------
1961-06-22 14.6 20.0 9.3- 74.8- 3.3 2.3---- 4.5------------
1961-06-21 16.3 21.1 5.2- 60.3- 4.7 1.7---- 4.9------------
1961-06-20 14.1 19.1 9.0- 63.8- 1.7 4.0---- 0.0------------
1961-06-19 17.5 22.7 14.3- 68.5- 5.7 4.0---- 0.0------------
1961-06-18 17.1 22.8 12.6- 89.0- 5.3 2.0---- 0.0------------
1961-06-17 15.1 18.8 11.1- 86.3- 8.0 2.3---- 8.4------------
1961-06-16 12.7 16.7 11.4- 90.5- 7.7 4.0---- 4.3------------
246.5 ms

 

Źródłem pochodzenia danych jest Instytut Meteorologii i Gospodarki Wodnej – Państwowy Instytut Badawczy. Dane Instytutu Meteorologii i Gospodarki Wodnej – Państwowego Instytutu Badawczego zostały przetworzone.

Dane źródłowe można odnaleźć na stronie https://dane.imgw.pl